Time;durP1;ratioP1;P1;durP2;ratioP2;P2;SDS_P1;SDS_P2;PMS_P1;PMS_P2;Temp;Humidity;BMP_temperature;BMP_pressure;BME280_temperature;BME280_humidity;BME280_pressure;Samples;Min_cycle;Max_cycle;Signal;HPM_P1;HPM_P2
2022/07/02 00:01:23;;;;;;;7.70;4.30;;;;;;;14.08;100.00;101400.31;5011542;28;20228;-77
2022/07/02 00:03:51;;;;;;;8.20;4.90;;;;;;;13.94;100.00;101409.41;5027401;28;20220;-78
2022/07/02 00:06:20;;;;;;;6.27;4.43;;;;;;;13.73;100.00;101410.84;5013014;28;20674;-77
2022/07/02 00:08:46;;;;;;;4.83;4.27;;;;;;;13.89;100.00;101406.06;5029540;28;20266;-77
2022/07/02 00:11:15;;;;;;;5.10;4.37;;;;;;;13.77;100.00;101414.25;5031460;28;20191;-77
2022/07/02 00:13:43;;;;;;;5.60;4.77;;;;;;;13.58;100.00;101413.91;5031661;28;20222;-78
2022/07/02 00:16:10;;;;;;;5.67;4.50;;;;;;;13.78;100.00;101414.22;5032080;28;20674;-77
2022/07/02 00:18:36;;;;;;;4.93;4.20;;;;;;;13.78;100.00;101414.22;5039914;28;20285;-78
2022/07/02 00:21:04;;;;;;;5.67;4.50;;;;;;;13.67;100.00;101412.78;5033239;28;20558;-78
2022/07/02 00:23:31;;;;;;;6.07;4.57;;;;;;;13.87;100.00;101414.88;5027477;28;20219;-77
2022/07/02 00:26:02;;;;;;;6.20;4.83;;;;;;;13.88;100.00;101416.59;5007508;28;20239;-77
2022/07/02 00:28:30;;;;;;;7.57;4.73;;;;;;;13.83;100.00;101425.44;5011667;28;20209;-77
2022/07/02 00:30:58;;;;;;;4.90;4.20;;;;;;;13.99;100.00;101417.16;5032264;28;20230;-77
2022/07/02 00:33:25;;;;;;;7.40;5.20;;;;;;;13.89;100.00;101423.56;5033419;28;20233;-77
2022/07/02 00:35:51;;;;;;;5.67;4.43;;;;;;;13.89;100.00;101428.81;5033602;28;20688;-77
2022/07/02 00:38:18;;;;;;;6.00;4.67;;;;;;;13.87;100.00;101420.97;5014060;28;20287;-77
2022/07/02 00:40:45;;;;;;;6.23;4.70;;;;;;;13.85;100.00;101419.31;5015073;28;20204;-75
2022/07/02 00:43:12;;;;;;;5.27;4.07;;;;;;;13.83;100.00;101420.19;5032091;28;20229;-76
2022/07/02 00:45:39;;;;;;;6.00;4.63;;;;;;;13.86;100.00;101418.41;5032545;28;20531;-75
2022/07/02 00:48:08;;;;;;;6.20;4.63;;;;;;;13.99;100.00;101425.03;5028723;28;20209;-76
2022/07/02 00:50:34;;;;;;;5.73;4.37;;;;;;;13.71;100.00;101417.91;5023262;28;20391;-75
2022/07/02 00:53:01;;;;;;;6.43;4.80;;;;;;;13.81;100.00;101429.03;5026977;28;20253;-75
2022/07/02 00:55:27;;;;;;;5.73;4.83;;;;;;;13.55;100.00;101427.09;5024427;28;20251;-76
2022/07/02 00:57:54;;;;;;;5.57;4.50;;;;;;;13.77;100.00;101424.75;5031938;28;20415;-75
2022/07/02 01:00:20;;;;;;;11.13;5.33;;;;;;;13.68;100.00;101425.84;5033946;28;20673;-75
2022/07/02 01:02:48;;;;;;;4.97;4.17;;;;;;;13.83;100.00;101425.44;5033455;28;20583;-75
2022/07/02 01:05:16;;;;;;;5.83;4.53;;;;;;;13.70;100.00;101437.16;5030554;28;20213;-75
2022/07/02 01:07:46;;;;;;;4.93;4.10;;;;;;;13.51;100.00;101439.41;5015973;28;20202;-75
2022/07/02 01:10:19;;;;;;;5.83;4.40;;;;;;;13.66;100.00;101427.66;5013455;28;20395;-75
2022/07/02 01:12:47;;;;;;;5.40;4.40;;;;;;;13.57;100.00;101426.13;5030618;28;20219;-75
2022/07/02 01:15:14;;;;;;;5.73;4.60;;;;;;;13.44;100.00;101432.59;5032254;28;20230;-75
2022/07/02 01:17:40;;;;;;;5.20;4.30;;;;;;;13.44;100.00;101429.97;5031310;28;20625;-75
2022/07/02 01:20:08;;;;;;;6.17;4.63;;;;;;;13.29;100.00;101425.94;5016286;28;20559;-75
2022/07/02 01:22:37;;;;;;;4.97;4.13;;;;;;;13.57;100.00;101422.66;5009343;28;20220;-75
2022/07/02 01:25:04;;;;;;;8.80;5.23;;;;;;;13.30;100.00;101426.78;5020767;28;20194;-75
2022/07/02 01:27:31;;;;;;;6.43;4.87;;;;;;;13.41;100.00;101425.66;5027637;28;20206;-75
2022/07/02 01:29:58;;;;;;;6.93;4.77;;;;;;;13.26;100.00;101419.03;5031648;28;20194;-75
2022/07/02 01:32:25;;;;;;;6.23;4.63;;;;;;;13.56;100.00;101420.91;5008534;28;20221;-75
2022/07/02 01:34:53;;;;;;;9.10;5.43;;;;;;;13.61;100.00;101427.78;5030304;28;20680;-75
2022/07/02 01:37:21;;;;;;;7.10;4.57;;;;;;;13.70;100.00;101426.69;5010786;28;20364;-75
2022/07/02 01:39:49;;;;;;;7.93;4.97;;;;;;;13.71;100.00;101430.16;5008370;28;20219;-75
2022/07/02 01:42:17;;;;;;;6.27;5.00;;;;;;;13.76;100.00;101436.16;5029616;28;20816;-75
2022/07/02 01:44:45;;;;;;;7.73;5.10;;;;;;;13.83;100.00;101425.44;5029744;28;20671;-75
2022/07/02 01:47:13;;;;;;;7.97;5.10;;;;;;;13.73;100.00;101423.13;5028251;28;20555;-75
2022/07/02 01:49:41;;;;;;;7.63;5.33;;;;;;;13.80;100.00;101424.66;5025788;28;20195;-75
2022/07/02 01:52:08;;;;;;;7.57;5.07;;;;;;;13.79;100.00;101423.81;5029148;28;20198;-75
2022/07/02 01:54:35;;;;;;;7.07;5.50;;;;;;;13.87;100.00;101420.13;5030972;28;20271;-75
2022/07/02 01:57:04;;;;;;;6.97;5.07;;;;;;;13.70;100.00;101428.44;5024611;28;20673;-76
2022/07/02 01:59:30;;;;;;;6.13;4.77;;;;;;;13.64;100.00;101426.84;5021557;28;20221;-75
2022/07/02 02:01:56;;;;;;;6.50;5.03;;;;;;;13.76;100.00;101428.28;5026923;28;20234;-75
2022/07/02 02:04:23;;;;;;;6.97;5.20;;;;;;;13.79;100.00;101428.16;5025543;28;20212;-75
2022/07/02 02:06:49;;;;;;;8.57;5.23;;;;;;;13.48;100.00;101434.22;5033947;28;20199;-75
2022/07/02 02:09:16;;;;;;;8.27;5.17;;;;;;;13.75;100.00;101443.13;5028134;28;20198;-74
2022/07/02 02:11:43;;;;;;;6.67;4.90;;;;;;;13.73;100.00;101441.47;5027939;28;20208;-75
2022/07/02 02:14:11;;;;;;;7.53;4.87;;;;;;;13.68;100.00;101436.31;5033612;28;20223;-75
2022/07/02 02:16:38;;;;;;;7.50;5.13;;;;;;;13.62;100.00;101446.97;5028907;28;20561;-75
2022/07/02 02:19:06;;;;;;;6.90;4.63;;;;;;;13.51;100.00;101447.25;5020888;28;20199;-75
2022/07/02 02:21:32;;;;;;;6.93;4.97;;;;;;;13.40;100.00;101457.13;5033040;28;20225;-75
2022/07/02 02:23:59;;;;;;;6.80;4.83;;;;;;;13.54;100.00;101446.31;5025766;28;20221;-75
2022/07/02 02:26:25;;;;;;;7.50;5.47;;;;;;;13.52;100.00;101464.69;5009792;28;20198;-75
2022/07/02 02:28:52;;;;;;;6.47;4.70;;;;;;;13.41;100.00;101461.47;5031782;28;20297;-75
2022/07/02 02:31:20;;;;;;;6.83;5.07;;;;;;;13.41;100.00;101464.94;5031405;28;20220;-75
2022/07/02 02:33:47;;;;;;;7.10;5.37;;;;;;;13.46;100.00;101467.47;5027047;28;20226;-75
2022/07/02 02:36:14;;;;;;;6.87;5.13;;;;;;;13.37;100.00;101476.41;5025299;28;20203;-75
2022/07/02 02:38:40;;;;;;;7.17;5.40;;;;;;;13.43;100.00;101475.41;5022905;28;20201;-76
2022/07/02 02:41:09;;;;;;;7.50;4.90;;;;;;;13.33;100.00;101486.97;5029511;28;20239;-75
2022/07/02 02:43:36;;;;;;;7.30;5.23;;;;;;;13.42;100.00;101478.91;5007014;28;20223;-75
2022/07/02 02:46:03;;;;;;;6.03;4.57;;;;;;;13.42;100.00;101479.78;5027274;28;20207;-75
2022/07/02 02:48:31;;;;;;;6.73;4.83;;;;;;;13.44;100.00;101485.00;5019005;28;20555;-75
2022/07/02 02:50:58;;;;;;;6.73;4.90;;;;;;;13.37;100.00;101486.88;5029972;28;20205;-75
2022/07/02 02:53:26;;;;;;;6.60;4.87;;;;;;;13.34;100.00;101492.19;5011396;28;20569;-75
2022/07/02 02:55:52;;;;;;;10.50;5.27;;;;;;;13.21;100.00;101495.97;5030075;28;20675;-75
2022/07/02 02:58:19;;;;;;;6.53;5.30;;;;;;;13.28;100.00;101505.41;5033698;28;20194;-75
2022/07/02 03:00:45;;;;;;;5.87;4.43;;;;;;;13.38;100.00;101503.44;5027918;28;20300;-75
2022/07/02 03:03:12;;;;;;;9.40;5.30;;;;;;;13.33;100.00;101505.31;5037310;28;20228;-76
2022/07/02 03:05:39;;;;;;;8.20;5.53;;;;;;;13.27;100.00;101512.38;5028343;28;20550;-75
2022/07/02 03:08:06;;;;;;;8.63;5.30;;;;;;;13.20;100.00;101513.44;5028838;28;20198;-74
2022/07/02 03:10:33;;;;;;;7.27;5.10;;;;;;;13.07;100.00;101505.00;5034075;28;20562;-75
2022/07/02 03:12:59;;;;;;;6.60;4.73;;;;;;;13.12;100.00;101512.75;5028383;28;20217;-75
2022/07/02 03:15:26;;;;;;;6.40;4.80;;;;;;;12.99;100.00;101517.38;5030614;28;20197;-75
2022/07/02 03:17:52;;;;;;;8.23;5.03;;;;;;;13.14;100.00;101523.19;5027704;28;20205;-75
2022/07/02 03:20:19;;;;;;;6.70;5.10;;;;;;;13.08;100.00;101525.03;5022447;28;20215;-75
2022/07/02 03:22:46;;;;;;;6.83;5.17;;;;;;;13.03;100.00;101524.31;5024023;28;20309;-74
2022/07/02 03:25:13;;;;;;;8.17;5.40;;;;;;;13.21;100.00;101524.78;5002979;28;20207;-75
2022/07/02 03:27:40;;;;;;;7.27;5.10;;;;;;;13.27;100.00;101532.50;5025589;28;20199;-75
2022/07/02 03:30:08;;;;;;;7.80;5.73;;;;;;;13.18;100.00;101535.31;5024657;28;20248;-75
2022/07/02 03:32:34;;;;;;;9.47;5.43;;;;;;;13.34;100.00;101534.09;5011142;28;20704;-75
2022/07/02 03:35:00;;;;;;;10.07;6.17;;;;;;;13.42;100.00;101531.28;5036225;22;20240;-77
2022/07/02 03:37:28;;;;;;;9.07;5.63;;;;;;;13.49;100.00;101532.00;5025095;28;20613;-77
2022/07/02 03:39:57;;;;;;;8.47;5.63;;;;;;;13.34;100.00;101531.47;5027401;28;20691;-77
2022/07/02 03:42:23;;;;;;;6.87;5.17;;;;;;;13.60;100.00;101536.09;5018139;28;20761;-77
2022/07/02 03:44:50;;;;;;;7.93;5.77;;;;;;;13.46;100.00;101540.81;5025074;28;20193;-77
2022/07/02 03:47:16;;;;;;;6.90;5.70;;;;;;;13.56;100.00;101550.19;5021611;28;20221;-77
2022/07/02 03:49:43;;;;;;;7.30;5.40;;;;;;;13.73;100.00;101552.38;5029841;28;20197;-77
2022/07/02 03:52:09;;;;;;;7.80;6.03;;;;;;;13.59;100.00;101546.63;5031605;28;20573;-77
2022/07/02 03:54:36;;;;;;;7.73;5.50;;;;;;;13.44;100.00;101543.47;5029741;28;20621;-78
2022/07/02 03:57:05;;;;;;;8.50;5.73;;;;;;;13.46;100.00;101543.44;5024899;28;20225;-77
2022/07/02 03:59:31;;;;;;;7.83;5.57;;;;;;;13.52;100.00;101543.28;5025006;28;20194;-77
2022/07/02 04:01:58;;;;;;;9.43;6.23;;;;;;;13.46;100.00;101555.69;5026104;28;20199;-76
2022/07/02 04:04:24;;;;;;;7.70;5.27;;;;;;;13.49;100.00;101553.84;5028091;28;20560;-76
2022/07/02 04:06:50;;;;;;;7.13;5.10;;;;;;;13.62;100.00;101557.88;5026190;28;20227;-76
2022/07/02 04:09:17;;;;;;;7.43;5.80;;;;;;;13.85;100.00;101556.47;5031002;28;20203;-76
2022/07/02 04:11:43;;;;;;;7.80;5.37;;;;;;;13.95;100.00;101551.88;5028998;28;20196;-76
2022/07/02 04:14:11;;;;;;;8.07;5.47;;;;;;;13.89;100.00;101549.38;5033946;28;20205;-77
2022/07/02 04:16:37;;;;;;;9.33;5.60;;;;;;;14.06;100.00;101556.84;5028768;28;20424;-76
2022/07/02 04:19:03;;;;;;;8.03;5.80;;;;;;;14.17;100.00;101560.88;5029586;28;20570;-77
2022/07/02 04:21:30;;;;;;;7.07;5.30;;;;;;;14.15;100.00;101557.44;5031082;28;20225;-77
2022/07/02 04:23:56;;;;;;;9.97;6.23;;;;;;;14.23;100.00;101557.25;5022662;28;20221;-77
2022/07/02 04:26:23;;;;;;;8.40;5.87;;;;;;;14.12;100.00;101557.50;5030780;28;20614;-77
2022/07/02 04:28:49;;;;;;;10.10;6.43;;;;;;;14.31;100.00;101555.25;5029208;28;20210;-77
2022/07/02 04:31:17;;;;;;;8.33;5.67;;;;;;;14.34;100.00;101560.44;5025766;28;20227;-77
2022/07/02 04:33:44;;;;;;;9.47;5.67;;;;;;;14.39;100.00;101562.94;5024972;28;20208;-77
2022/07/02 04:36:10;;;;;;;8.60;6.20;;;;;;;14.41;100.00;101561.13;5028774;28;20756;-77
2022/07/02 04:38:38;;;;;;;8.97;5.33;;;;;;;14.41;100.00;101565.53;5029632;28;20213;-77
2022/07/02 04:41:04;;;;;;;8.90;5.47;;;;;;;14.68;100.00;101563.91;5028396;28;20472;-76
2022/07/02 04:43:31;;;;;;;9.70;5.77;;;;;;;14.80;100.00;101567.97;5030987;28;20653;-76
2022/07/02 04:45:57;;;;;;;8.37;5.30;;;;;;;14.73;100.00;101559.41;5030310;28;20207;-77
2022/07/02 04:48:25;;;;;;;9.10;5.40;;;;;;;14.81;100.00;101569.69;5029676;28;20223;-77
2022/07/02 04:50:51;;;;;;;6.87;4.77;;;;;;;14.91;100.00;101565.88;5025343;28;20581;-76
2022/07/02 04:53:18;;;;;;;8.73;5.50;;;;;;;15.07;100.00;101574.16;5030036;28;20258;-76
2022/07/02 04:55:44;;;;;;;8.53;4.90;;;;;;;15.21;100.00;101568.50;5027289;28;20202;-77
2022/07/02 04:58:10;;;;;;;7.90;5.10;;;;;;;15.05;100.00;101573.34;5029675;28;20727;-76
2022/07/02 05:00:37;;;;;;;6.27;5.10;;;;;;;15.05;100.00;101576.84;5030913;28;20218;-76
2022/07/02 05:03:03;;;;;;;5.40;4.57;;;;;;;15.08;100.00;101578.53;5027138;28;20202;-78
2022/07/02 05:05:31;;;;;;;6.40;4.60;;;;;;;15.11;100.00;101583.69;5023842;28;20199;-77
2022/07/02 05:07:57;;;;;;;5.53;4.20;;;;;;;15.41;100.00;101578.38;5024796;28;20230;-76
2022/07/02 05:10:24;;;;;;;5.83;4.10;;;;;;;15.38;100.00;101589.00;5027048;28;20210;-76
2022/07/02 05:12:50;;;;;;;4.63;3.77;;;;;;;15.46;100.00;101586.97;5028081;28;20625;-76
2022/07/02 05:15:17;;;;;;;5.17;3.93;;;;;;;15.68;100.00;101589.81;5027495;28;20545;-76
2022/07/02 05:17:43;;;;;;;6.17;4.27;;;;;;;15.63;100.00;101589.94;5030823;28;20225;-76
2022/07/02 05:20:11;;;;;;;6.07;4.00;;;;;;;15.73;100.00;101595.78;5022307;28;20200;-76
2022/07/02 05:22:38;;;;;;;5.37;4.20;;;;;;;15.81;100.00;101596.44;5028520;28;20202;-77
2022/07/02 05:25:05;;;;;;;5.43;3.50;;;;;;;15.87;100.00;101605.88;5023453;28;20294;-77
2022/07/02 05:27:32;;;;;;;5.37;4.00;;;;;;;15.89;100.00;101612.81;5027473;28;20219;-77
2022/07/02 05:29:59;;;;;;;3.87;3.47;;;;;;;16.03;100.00;101611.50;5027538;28;20214;-76
2022/07/02 05:32:25;;;;;;;4.30;3.50;;;;;;;16.21;100.00;101620.53;5028015;28;20214;-76
2022/07/02 05:34:51;;;;;;;4.37;3.33;;;;;;;16.40;100.00;101620.78;5028710;28;20833;-76
2022/07/02 05:37:18;;;;;;;4.57;3.33;;;;;;;16.30;100.00;101617.59;5026550;28;20218;-76
2022/07/02 05:39:45;;;;;;;5.73;3.63;;;;;;;16.34;100.00;101628.88;5023070;28;20204;-76
2022/07/02 05:42:12;;;;;;;5.87;3.57;;;;;;;16.40;100.00;101626.88;5024878;28;20219;-76
2022/07/02 05:44:38;;;;;;;4.23;2.87;;;;;;;16.56;100.00;101626.34;5028371;28;20692;-75
2022/07/02 05:47:05;;;;;;;4.40;3.40;;;;;;;16.59;100.00;101631.53;5027305;28;20831;-77
2022/07/02 05:49:32;;;;;;;4.60;2.93;;;;;;;16.62;100.00;101628.75;5022153;28;20639;-76
2022/07/02 05:51:58;;;;;;;2.83;2.50;;;;;;;16.82;100.00;101623.66;5023574;28;20191;-75
2022/07/02 05:54:24;;;;;;;3.87;3.47;;;;;;;16.91;100.00;101621.63;5026104;28;20208;-76
2022/07/02 05:56:52;;;;;;;5.27;2.67;;;;;;;16.90;100.00;101627.81;5025836;28;20470;-76
2022/07/02 05:59:18;;;;;;;3.37;2.93;;;;;;;17.04;100.00;101633.41;5025856;28;20200;-76
2022/07/02 06:01:45;;;;;;;6.67;3.07;;;;;;;17.10;100.00;101638.47;5028907;28;20294;-75
2022/07/02 06:04:11;;;;;;;4.77;2.77;;;;;;;17.19;100.00;101635.47;5023824;28;20203;-76
2022/07/02 06:09:21;;;;;;;3.00;2.73;;;;;;;17.45;100.00;101638.03;5019765;28;20204;-75
2022/07/02 06:11:48;;;;;;;3.87;3.30;;;;;;;17.39;100.00;101658.44;5027001;28;20192;-76
2022/07/02 06:14:15;;;;;;;3.83;3.13;;;;;;;17.50;100.00;101647.50;5026551;28;20196;-76
2022/07/02 06:16:42;;;;;;;3.73;3.30;;;;;;;17.59;100.00;101648.91;5025581;28;20505;-75
2022/07/02 06:19:08;;;;;;;4.27;2.87;;;;;;;17.76;100.00;101651.75;5023068;28;20192;-76
2022/07/02 06:21:35;;;;;;;5.10;2.83;;;;;;;17.82;100.00;101666.47;5020707;28;20544;-76
2022/07/02 06:24:02;;;;;;;3.93;2.73;;;;;;;17.85;100.00;101666.31;5017820;28;20211;-75
2022/07/02 06:26:28;;;;;;;3.10;2.80;;;;;;;17.91;100.00;101671.41;5019441;28;20220;-76
2022/07/02 06:28:54;;;;;;;4.63;2.63;;;;;;;18.05;100.00;101670.00;5025698;28;20191;-75
2022/07/02 06:31:22;;;;;;;3.20;2.90;;;;;;;18.13;100.00;101673.16;5023269;28;20191;-77
2022/07/02 06:33:49;;;;;;;3.70;2.80;;;;;;;18.25;100.00;101675.28;5026063;28;20927;-76
2022/07/02 06:36:17;;;;;;;4.83;3.07;;;;;;;18.31;96.77;101675.03;5020773;28;20208;-75
2022/07/02 06:38:43;;;;;;;4.50;2.70;;;;;;;18.40;96.69;101673.78;5021091;28;20736;-75
2022/07/02 06:42:18;;;;;;;5.07;3.07;;;;;;;18.43;95.05;101670.16;5026285;28;20692;-76
2022/07/02 06:44:03;;;;;;;3.80;2.70;;;;;;;18.53;95.22;101672.31;5023962;28;20278;-76
2022/07/02 06:46:30;;;;;;;3.10;2.60;;;;;;;18.66;95.86;101680.59;5028320;28;20644;-76
2022/07/02 06:48:57;;;;;;;2.97;2.50;;;;;;;18.66;94.74;101680.59;5021661;28;20210;-75
2022/07/02 06:51:23;;;;;;;4.03;3.27;;;;;;;18.81;95.45;101676.41;5024916;28;20246;-77
2022/07/02 06:53:50;;;;;;;4.17;2.50;;;;;;;18.92;91.28;101690.03;5025367;28;20200;-76
2022/07/02 06:56:16;;;;;;;2.90;2.53;;;;;;;19.05;92.85;101694.75;5024960;28;20407;-75
2022/07/02 06:58:42;;;;;;;4.60;2.93;;;;;;;19.00;88.58;101692.34;5027744;28;20207;-75
2022/07/02 07:01:09;;;;;;;3.27;2.67;;;;;;;19.12;90.62;101693.59;5019843;28;20247;-76
2022/07/02 07:03:37;;;;;;;4.53;3.00;;;;;;;19.27;91.21;101698.16;5015115;28;20565;-75
2022/07/02 07:06:03;;;;;;;3.60;3.20;;;;;;;19.42;92.89;101701.06;5016731;28;20684;-76
2022/07/02 07:08:29;;;;;;;4.77;2.90;;;;;;;19.48;89.74;101698.09;5020196;28;20664;-76
2022/07/02 07:10:56;;;;;;;4.60;2.53;;;;;;;19.49;88.51;101700.69;5019273;28;20523;-76
2022/07/02 07:13:23;;;;;;;5.00;2.83;;;;;;;19.53;83.49;101697.91;5018814;28;20275;-76
2022/07/02 07:15:49;;;;;;;3.33;2.80;;;;;;;19.66;87.30;101699.03;5020192;28;20955;-75
2022/07/02 07:18:15;;;;;;;5.17;3.43;;;;;;;19.71;85.85;101707.59;5018762;28;20755;-76
2022/07/02 07:20:45;;;;;;;4.87;3.10;;;;;;;19.79;85.63;101700.19;5020510;28;20221;-76
2022/07/02 07:23:11;;;;;;;4.23;2.87;;;;;;;19.83;81.63;101703.56;5024683;28;20214;-77
2022/07/02 07:25:38;;;;;;;4.97;3.07;;;;;;;19.94;79.43;101711.81;5017712;28;20200;-76
2022/07/02 07:28:04;;;;;;;5.10;2.63;;;;;;;20.01;80.69;101705.28;5021277;28;20216;-76
2022/07/02 07:30:31;;;;;;;3.20;2.77;;;;;;;20.11;80.47;101713.66;5028270;28;20219;-76
2022/07/02 07:32:57;;;;;;;3.23;2.93;;;;;;;20.19;77.52;101714.16;5027260;28;20208;-76
2022/07/02 07:35:24;;;;;;;3.17;2.70;;;;;;;20.38;81.64;101714.06;5025366;28;20199;-76
2022/07/02 07:37:59;;;;;;;6.23;3.07;;;;;;;20.41;80.42;101718.38;5020344;28;20409;-76
2022/07/02 07:40:25;;;;;;;5.53;2.67;;;;;;;20.51;75.59;101730.22;5023723;28;20582;-76
2022/07/02 07:42:52;;;;;;;3.97;2.43;;;;;;;20.60;71.97;101734.19;5024055;28;20227;-75
2022/07/02 07:45:18;;;;;;;4.43;2.77;;;;;;;20.64;72.46;101732.28;5022345;28;20211;-76
2022/07/02 07:47:45;;;;;;;3.07;2.67;;;;;;;20.67;75.01;101732.09;5023578;28;20226;-75
2022/07/02 07:50:11;;;;;;;4.00;2.70;;;;;;;20.61;67.58;101739.44;5021061;28;20204;-76
2022/07/02 07:52:37;;;;;;;4.27;2.83;;;;;;;20.66;71.54;101739.19;5016331;28;20715;-76
2022/07/02 07:55:06;;;;;;;3.23;2.43;;;;;;;20.78;69.21;101743.88;5025065;28;20205;-76
2022/07/02 07:57:33;;;;;;;4.07;2.50;;;;;;;20.92;67.46;101737.00;5023529;28;20220;-76
2022/07/02 07:59:59;;;;;;;5.90;2.67;;;;;;;20.89;66.52;101745.13;5030249;28;20200;-76
2022/07/02 08:02:25;;;;;;;3.40;2.50;;;;;;;21.12;69.44;101742.09;5014609;28;20424;-76
2022/07/02 08:04:52;;;;;;;4.50;2.30;;;;;;;21.27;68.31;101743.09;5014564;28;20204;-76
2022/07/02 08:07:18;;;;;;;3.07;2.53;;;;;;;21.04;65.23;101746.97;5015079;28;20224;-77
2022/07/02 08:09:46;;;;;;;3.50;2.20;;;;;;;20.84;70.00;101739.19;5024377;28;20638;-76
2022/07/02 08:12:13;;;;;;;3.50;2.40;;;;;;;20.72;65.42;101738.91;5023700;28;20204;-76
2022/07/02 08:14:39;;;;;;;3.97;2.40;;;;;;;20.93;63.08;101744.88;5023076;28;20699;-77
2022/07/02 08:17:06;;;;;;;2.57;2.07;;;;;;;21.14;61.04;101742.03;5023172;28;20683;-76
2022/07/02 08:19:32;;;;;;;2.20;2.00;;;;;;;21.43;61.05;101744.94;5016616;28;20199;-76
2022/07/02 08:21:59;;;;;;;2.93;2.20;;;;;;;21.65;57.46;101752.59;5019686;28;20492;-75
2022/07/02 08:24:25;;;;;;;2.70;1.90;;;;;;;21.82;57.82;101746.34;5020289;28;20203;-75
2022/07/02 08:26:51;;;;;;;4.90;1.63;;;;;;;21.97;57.54;101753.47;5014854;28;20228;-76
2022/07/02 08:29:19;;;;;;;2.03;1.80;;;;;;;21.91;55.32;101752.00;5020081;28;20208;-76
2022/07/02 08:31:46;;;;;;;2.60;2.33;;;;;;;21.83;55.87;101745.41;5016161;28;20191;-76
2022/07/02 08:34:12;;;;;;;2.47;1.80;;;;;;;21.62;55.12;101744.78;5019508;28;20208;-76
2022/07/02 08:36:39;;;;;;;2.70;1.80;;;;;;;21.38;54.51;101747.81;5022109;28;20238;-75
2022/07/02 08:39:05;;;;;;;2.20;1.60;;;;;;;21.61;57.15;101745.75;5029382;28;20236;-76
2022/07/02 08:41:32;;;;;;;2.57;1.87;;;;;;;21.86;55.15;101746.13;5023946;28;20227;-76
2022/07/02 08:44:02;;;;;;;2.27;1.70;;;;;;;21.92;52.88;101744.91;5025888;28;20210;-75
2022/07/02 08:46:30;;;;;;;5.18;1.75;;;;;;;22.00;52.99;101744.47;5026201;28;20224;-75
2022/07/02 08:48:59;;;;;;;2.20;2.00;;;;;;;22.15;55.04;101735.63;5026361;28;20203;-75
2022/07/02 08:51:26;;;;;;;2.67;1.42;;;;;;;22.35;51.68;101745.13;5011669;28;20200;-76
2022/07/02 08:53:52;;;;;;;1.90;1.70;;;;;;;22.40;49.87;101744.88;5018087;28;20329;-75
2022/07/02 08:56:21;;;;;;;2.47;1.60;;;;;;;22.41;51.73;101738.59;5020655;28;20196;-75
2022/07/02 08:58:49;;;;;;;1.90;1.60;;;;;;;22.25;53.65;101733.28;5023997;28;20222;-76
2022/07/02 09:01:17;;;;;;;2.45;1.30;;;;;;;21.82;51.95;101736.59;5030379;28;20203;-75
2022/07/02 09:03:45;;;;;;;2.45;1.33;;;;;;;21.51;52.68;101740.06;5031929;28;20571;-76
2022/07/02 09:06:12;;;;;;;1.65;1.30;;;;;;;21.67;51.05;101742.75;5028928;28;20203;-75
2022/07/02 09:08:40;;;;;;;1.42;1.20;;;;;;;21.94;49.16;101748.31;5025911;28;20214;-75
2022/07/02 09:11:07;;;;;;;1.77;1.13;;;;;;;22.05;51.34;101729.97;5017823;28;20684;-75
2022/07/02 09:13:34;;;;;;;2.97;1.40;;;;;;;22.37;48.88;101737.91;5025787;28;20204;-75
2022/07/02 09:16:00;;;;;;;1.20;1.10;;;;;;;22.43;46.13;101734.06;5025378;28;20199;-75
2022/07/02 09:18:27;;;;;;;1.20;1.10;;;;;;;22.49;45.07;101729.22;5024033;28;20226;-75
2022/07/02 09:20:55;;;;;;;1.13;1.02;;;;;;;22.69;46.60;101741.34;5026013;28;20196;-75
2022/07/02 09:23:23;;;;;;;1.10;1.00;;;;;;;22.83;46.44;101727.22;5021807;28;20219;-75
2022/07/02 09:25:51;;;;;;;1.67;1.15;;;;;;;22.72;45.80;101727.00;5023343;28;20218;-75
2022/07/02 09:28:18;;;;;;;1.48;1.20;;;;;;;22.34;44.35;101739.88;5033440;28;20223;-75
2022/07/02 09:30:45;;;;;;;1.00;0.90;;;;;;;22.37;43.16;101735.25;5027299;28;20340;-75
2022/07/02 09:33:30;;;;;;;1.88;1.10;;;;;;;22.61;44.55;101732.97;5028601;28;20196;-75
2022/07/02 09:36:00;;;;;;;1.23;1.02;;;;;;;22.79;42.84;101728.34;5033752;28;20195;-75
2022/07/02 09:38:26;;;;;;;4.00;1.30;;;;;;;22.80;43.49;101731.88;5038617;28;20268;-75
2022/07/02 09:40:54;;;;;;;3.88;1.02;;;;;;;22.86;43.35;101719.03;5035566;28;20185;-75
2022/07/02 09:43:28;;;;;;;1.27;1.15;;;;;;;22.82;47.96;101711.38;5033331;28;20230;-75
2022/07/02 09:48:33;;;;;;;1.60;1.10;;;;;;;23.04;46.93;101705.56;5037307;28;20302;-75
2022/07/02 09:51:04;;;;;;;1.08;0.98;;;;;;;23.19;45.03;101709.13;5031492;28;20198;-75
2022/07/02 09:53:31;;;;;;;3.00;1.23;;;;;;;23.13;44.25;101709.50;5033778;28;20230;-76
2022/07/02 09:55:57;;;;;;;2.30;1.00;;;;;;;22.92;44.44;101708.97;5042303;28;20199;-75
2022/07/02 09:58:25;;;;;;;1.45;0.95;;;;;;;22.73;43.52;101702.13;5030629;28;20257;-76
2022/07/02 10:00:54;;;;;;;0.80;0.80;;;;;;;22.48;43.78;101706.28;5031296;28;20226;-75
2022/07/02 10:03:21;;;;;;;1.40;1.00;;;;;;;22.74;43.25;101705.66;5035107;28;20552;-76
2022/07/02 10:05:50;;;;;;;1.23;0.90;;;;;;;23.06;44.31;101701.06;5042002;28;20225;-76
2022/07/02 10:08:18;;;;;;;0.95;0.90;;;;;;;23.27;44.74;101698.88;5028570;28;20417;-76
2022/07/02 10:10:46;;;;;;;2.47;1.05;;;;;;;23.48;43.82;101696.63;5030316;28;20204;-76
2022/07/02 10:13:14;;;;;;;1.27;0.90;;;;;;;23.78;45.22;101684.97;5033253;28;20333;-77
2022/07/02 10:15:51;;;;;;;0.85;0.70;;;;;;;23.95;40.56;101698.06;5029804;28;20701;-75
2022/07/02 10:18:18;;;;;;;0.93;0.77;;;;;;;24.01;44.33;101686.16;5038381;28;20207;-76
2022/07/02 10:20:45;;;;;;;1.52;0.75;;;;;;;24.12;44.07;101688.13;5056142;28;20196;-75
2022/07/02 10:23:14;;;;;;;1.02;0.68;;;;;;;24.14;43.73;101688.84;5031091;28;20194;-76
2022/07/02 10:25:44;;;;;;;0.80;0.80;;;;;;;24.18;44.05;101687.69;5031873;28;20227;-75
2022/07/02 10:28:10;;;;;;;1.15;0.80;;;;;;;23.98;40.59;101697.84;5037031;28;20699;-76
2022/07/02 10:30:37;;;;;;;0.70;0.70;;;;;;;24.00;38.59;101693.28;5036944;28;20184;-76
2022/07/02 10:33:15;;;;;;;10.38;1.25;;;;;;;24.22;42.68;101688.34;5030292;28;20223;-76
2022/07/02 10:35:43;;;;;;;0.82;0.80;;;;;;;24.39;43.23;101688.06;5033237;28;20868;-76
2022/07/02 10:38:09;;;;;;;1.65;0.90;;;;;;;24.60;41.46;101695.59;5033017;28;20203;-76
2022/07/02 10:40:48;;;;;;;4.00;0.70;;;;;;;24.67;39.89;101695.03;5028766;28;20192;-76
2022/07/02 10:43:15;;;;;;;0.98;0.80;;;;;;;24.76;38.92;101699.72;5051994;28;20439;-76
2022/07/02 10:45:42;;;;;;;3.78;0.80;;;;;;;24.85;38.17;101694.72;5028543;28;20224;-76
2022/07/02 10:48:10;;;;;;;1.90;0.70;;;;;;;24.84;40.02;101691.22;5021376;28;20208;-77
2022/07/02 10:50:42;;;;;;;0.77;0.75;;;;;;;24.86;36.65;101689.28;5031168;28;20196;-75
2022/07/02 10:53:11;;;;;;;0.70;0.70;;;;;;;24.88;36.49;101687.38;5030272;28;20232;-75
2022/07/02 10:55:38;;;;;;;1.75;0.80;;;;;;;25.08;38.68;101687.78;5024820;28;20245;-76
2022/07/02 10:58:08;;;;;;;0.70;0.70;;;;;;;25.02;37.27;101685.56;5031217;28;20196;-75
2022/07/02 11:00:36;;;;;;;0.95;0.77;;;;;;;24.91;36.43;101683.66;5033043;28;20204;-75
2022/07/02 11:03:14;;;;;;;2.53;0.82;;;;;;;25.24;37.54;101672.41;5038434;28;20194;-75
2022/07/02 11:05:59;;;;;;;2.15;0.80;;;;;;;25.41;36.95;101678.34;5031456;28;20700;-75
2022/07/02 11:08:44;;;;;;;0.95;0.88;;;;;;;25.44;38.93;101665.63;5028558;28;20664;-75
2022/07/02 11:11:11;;;;;;;0.57;0.57;;;;;;;25.49;37.98;101665.31;5030467;28;20198;-75
2022/07/02 11:13:48;;;;;;;1.58;0.75;;;;;;;25.50;37.21;101661.66;5035794;28;20787;-75
2022/07/02 11:16:19;;;;;;;0.90;0.70;;;;;;;25.52;35.26;101665.06;5036446;28;20510;-75
2022/07/02 11:18:47;;;;;;;1.00;0.73;;;;;;;25.60;36.56;101654.69;5044922;28;20204;-75
2022/07/02 11:21:15;;;;;;;1.33;0.90;;;;;;;25.62;36.98;101663.44;5022968;28;20198;-75
2022/07/02 11:23:41;;;;;;;0.90;0.80;;;;;;;25.69;37.57;101655.81;5027802;28;20192;-75
2022/07/02 11:26:08;;;;;;;1.02;0.70;;;;;;;25.71;37.20;101653.88;5021641;28;20242;-75